sensor_id;sensor_type;location;lat;lon;timestamp;P1;durP1;ratioP1;P2;durP2;ratioP2
12848;SDS011;6493;50.928;7.172;2024-01-11T00:03:42;7.90;;;4.47;;
12848;SDS011;6493;50.928;7.172;2024-01-11T00:08:46;7.90;;;4.73;;
12848;SDS011;6493;50.928;7.172;2024-01-11T00:13:49;7.70;;;4.17;;
12848;SDS011;6493;50.928;7.172;2024-01-11T00:18:54;9.87;;;5.60;;
12848;SDS011;6493;50.928;7.172;2024-01-11T00:23:58;9.60;;;6.40;;
12848;SDS011;6493;50.928;7.172;2024-01-11T00:29:01;8.87;;;5.27;;
12848;SDS011;6493;50.928;7.172;2024-01-11T00:34:07;7.03;;;4.70;;
12848;SDS011;6493;50.928;7.172;2024-01-11T00:39:11;12.40;;;6.57;;
12848;SDS011;6493;50.928;7.172;2024-01-11T00:44:15;10.30;;;5.60;;
12848;SDS011;6493;50.928;7.172;2024-01-11T00:49:20;6.67;;;4.53;;
12848;SDS011;6493;50.928;7.172;2024-01-11T00:54:24;8.27;;;5.17;;
12848;SDS011;6493;50.928;7.172;2024-01-11T00:59:27;6.80;;;4.67;;
12848;SDS011;6493;50.928;7.172;2024-01-11T01:04:32;7.07;;;3.87;;
12848;SDS011;6493;50.928;7.172;2024-01-11T01:09:36;5.77;;;3.63;;
12848;SDS011;6493;50.928;7.172;2024-01-11T01:14:40;4.30;;;2.87;;
12848;SDS011;6493;50.928;7.172;2024-01-11T01:19:45;5.43;;;2.93;;
12848;SDS011;6493;50.928;7.172;2024-01-11T01:24:48;4.57;;;2.97;;
12848;SDS011;6493;50.928;7.172;2024-01-11T01:29:52;4.37;;;2.07;;
12848;SDS011;6493;50.928;7.172;2024-01-11T01:34:57;4.37;;;2.87;;
12848;SDS011;6493;50.928;7.172;2024-01-11T01:40:01;4.20;;;2.40;;
12848;SDS011;6493;50.928;7.172;2024-01-11T01:45:05;5.97;;;2.97;;
12848;SDS011;6493;50.928;7.172;2024-01-11T01:50:11;5.10;;;2.70;;
12848;SDS011;6493;50.928;7.172;2024-01-11T01:55:15;3.93;;;2.40;;
12848;SDS011;6493;50.928;7.172;2024-01-11T02:00:19;3.97;;;2.50;;
12848;SDS011;6493;50.928;7.172;2024-01-11T02:05:24;3.77;;;2.43;;
12848;SDS011;6493;50.928;7.172;2024-01-11T02:10:28;2.70;;;1.87;;
12848;SDS011;6493;50.928;7.172;2024-01-11T02:15:35;2.70;;;1.93;;
12848;SDS011;6493;50.928;7.172;2024-01-11T02:20:40;4.00;;;2.30;;
12848;SDS011;6493;50.928;7.172;2024-01-11T02:25:45;3.50;;;1.90;;
12848;SDS011;6493;50.928;7.172;2024-01-11T02:30:49;4.87;;;2.77;;
12848;SDS011;6493;50.928;7.172;2024-01-11T02:35:53;3.20;;;2.30;;
12848;SDS011;6493;50.928;7.172;2024-01-11T02:40:58;4.77;;;2.07;;
12848;SDS011;6493;50.928;7.172;2024-01-11T02:46:02;3.43;;;2.10;;
12848;SDS011;6493;50.928;7.172;2024-01-11T02:51:06;3.77;;;2.53;;
12848;SDS011;6493;50.928;7.172;2024-01-11T02:56:11;5.53;;;2.80;;
12848;SDS011;6493;50.928;7.172;2024-01-11T03:01:15;3.80;;;2.37;;
12848;SDS011;6493;50.928;7.172;2024-01-11T03:06:18;3.87;;;3.00;;
12848;SDS011;6493;50.928;7.172;2024-01-11T03:11:26;5.37;;;3.13;;
12848;SDS011;6493;50.928;7.172;2024-01-11T03:16:29;4.30;;;2.57;;
12848;SDS011;6493;50.928;7.172;2024-01-11T03:21:33;4.53;;;2.97;;
12848;SDS011;6493;50.928;7.172;2024-01-11T03:26:38;4.17;;;2.67;;
12848;SDS011;6493;50.928;7.172;2024-01-11T03:31:42;4.13;;;2.30;;
12848;SDS011;6493;50.928;7.172;2024-01-11T03:36:47;3.40;;;2.20;;
12848;SDS011;6493;50.928;7.172;2024-01-11T03:41:52;3.93;;;2.43;;
12848;SDS011;6493;50.928;7.172;2024-01-11T03:46:55;5.10;;;2.67;;
12848;SDS011;6493;50.928;7.172;2024-01-11T03:51:59;4.03;;;2.50;;
12848;SDS011;6493;50.928;7.172;2024-01-11T03:57:04;3.50;;;2.07;;
12848;SDS011;6493;50.928;7.172;2024-01-11T04:02:08;4.37;;;2.40;;
12848;SDS011;6493;50.928;7.172;2024-01-11T04:07:12;3.30;;;2.10;;
12848;SDS011;6493;50.928;7.172;2024-01-11T04:12:17;4.97;;;2.60;;
12848;SDS011;6493;50.928;7.172;2024-01-11T04:17:21;4.67;;;2.60;;
12848;SDS011;6493;50.928;7.172;2024-01-11T04:22:24;5.63;;;2.57;;
12848;SDS011;6493;50.928;7.172;2024-01-11T04:27:29;5.10;;;3.13;;
12848;SDS011;6493;50.928;7.172;2024-01-11T04:32:33;5.10;;;3.03;;
12848;SDS011;6493;50.928;7.172;2024-01-11T04:37:37;5.10;;;3.10;;
12848;SDS011;6493;50.928;7.172;2024-01-11T04:42:41;6.20;;;3.40;;
12848;SDS011;6493;50.928;7.172;2024-01-11T04:47:45;5.67;;;2.93;;
12848;SDS011;6493;50.928;7.172;2024-01-11T04:52:49;4.17;;;2.97;;
12848;SDS011;6493;50.928;7.172;2024-01-11T04:57:54;4.27;;;3.00;;
12848;SDS011;6493;50.928;7.172;2024-01-11T05:02:57;5.27;;;2.87;;
12848;SDS011;6493;50.928;7.172;2024-01-11T05:08:01;3.67;;;2.47;;
12848;SDS011;6493;50.928;7.172;2024-01-11T05:13:06;4.50;;;2.60;;
12848;SDS011;6493;50.928;7.172;2024-01-11T05:18:10;2.47;;;2.13;;
12848;SDS011;6493;50.928;7.172;2024-01-11T05:23:13;3.53;;;2.43;;
12848;SDS011;6493;50.928;7.172;2024-01-11T05:28:18;5.50;;;2.73;;
12848;SDS011;6493;50.928;7.172;2024-01-11T05:33:22;5.73;;;2.80;;
12848;SDS011;6493;50.928;7.172;2024-01-11T05:38:26;6.43;;;3.37;;
12848;SDS011;6493;50.928;7.172;2024-01-11T05:43:31;4.63;;;2.90;;
12848;SDS011;6493;50.928;7.172;2024-01-11T05:48:34;5.00;;;3.30;;
12848;SDS011;6493;50.928;7.172;2024-01-11T05:53:38;4.70;;;3.13;;
12848;SDS011;6493;50.928;7.172;2024-01-11T05:58:43;3.60;;;2.57;;
12848;SDS011;6493;50.928;7.172;2024-01-11T06:03:47;4.87;;;3.10;;
12848;SDS011;6493;50.928;7.172;2024-01-11T06:08:50;4.67;;;2.70;;
12848;SDS011;6493;50.928;7.172;2024-01-11T06:13:55;5.13;;;2.83;;
12848;SDS011;6493;50.928;7.172;2024-01-11T06:18:59;6.73;;;2.80;;
12848;SDS011;6493;50.928;7.172;2024-01-11T06:24:03;5.30;;;2.53;;
12848;SDS011;6493;50.928;7.172;2024-01-11T06:29:08;5.23;;;3.00;;
12848;SDS011;6493;50.928;7.172;2024-01-11T06:34:12;5.33;;;3.17;;
12848;SDS011;6493;50.928;7.172;2024-01-11T06:39:15;7.73;;;3.83;;
12848;SDS011;6493;50.928;7.172;2024-01-11T06:44:20;5.43;;;3.50;;
12848;SDS011;6493;50.928;7.172;2024-01-11T06:49:24;3.97;;;2.70;;
12848;SDS011;6493;50.928;7.172;2024-01-11T06:54:27;5.03;;;3.17;;
12848;SDS011;6493;50.928;7.172;2024-01-11T06:59:33;7.17;;;3.70;;
12848;SDS011;6493;50.928;7.172;2024-01-11T07:04:37;4.33;;;3.30;;
12848;SDS011;6493;50.928;7.172;2024-01-11T07:09:41;6.20;;;3.33;;
12848;SDS011;6493;50.928;7.172;2024-01-11T07:14:45;4.60;;;2.90;;
12848;SDS011;6493;50.928;7.172;2024-01-11T07:19:50;5.00;;;3.03;;
12848;SDS011;6493;50.928;7.172;2024-01-11T07:24:54;5.03;;;3.67;;
12848;SDS011;6493;50.928;7.172;2024-01-11T07:29:59;5.07;;;3.43;;
12848;SDS011;6493;50.928;7.172;2024-01-11T07:35:04;5.13;;;3.93;;
12848;SDS011;6493;50.928;7.172;2024-01-11T07:40:15;6.27;;;4.47;;
12848;SDS011;6493;50.928;7.172;2024-01-11T07:45:20;5.77;;;3.63;;
12848;SDS011;6493;50.928;7.172;2024-01-11T07:50:24;6.23;;;3.70;;
12848;SDS011;6493;50.928;7.172;2024-01-11T07:55:27;6.40;;;3.57;;
12848;SDS011;6493;50.928;7.172;2024-01-11T08:00:32;4.60;;;3.10;;
12848;SDS011;6493;50.928;7.172;2024-01-11T08:05:36;6.50;;;4.10;;
12848;SDS011;6493;50.928;7.172;2024-01-11T08:10:40;5.20;;;3.73;;
12848;SDS011;6493;50.928;7.172;2024-01-11T08:15:45;6.07;;;3.70;;
12848;SDS011;6493;50.928;7.172;2024-01-11T08:20:48;6.97;;;3.73;;
12848;SDS011;6493;50.928;7.172;2024-01-11T08:25:52;6.73;;;3.73;;
12848;SDS011;6493;50.928;7.172;2024-01-11T08:30:57;5.37;;;3.57;;
12848;SDS011;6493;50.928;7.172;2024-01-11T08:36:02;6.47;;;4.27;;
12848;SDS011;6493;50.928;7.172;2024-01-11T08:41:06;7.07;;;3.97;;
12848;SDS011;6493;50.928;7.172;2024-01-11T08:46:11;9.00;;;4.57;;
12848;SDS011;6493;50.928;7.172;2024-01-11T08:51:25;6.13;;;4.60;;
12848;SDS011;6493;50.928;7.172;2024-01-11T08:56:29;8.47;;;5.50;;
12848;SDS011;6493;50.928;7.172;2024-01-11T09:01:34;7.90;;;5.73;;
12848;SDS011;6493;50.928;7.172;2024-01-11T09:06:39;8.10;;;5.87;;
12848;SDS011;6493;50.928;7.172;2024-01-11T09:11:43;6.60;;;4.90;;
12848;SDS011;6493;50.928;7.172;2024-01-11T09:16:47;7.13;;;5.37;;
12848;SDS011;6493;50.928;7.172;2024-01-11T09:21:51;9.10;;;6.00;;
12848;SDS011;6493;50.928;7.172;2024-01-11T09:26:55;7.23;;;5.60;;
12848;SDS011;6493;50.928;7.172;2024-01-11T09:32:00;9.30;;;6.97;;
12848;SDS011;6493;50.928;7.172;2024-01-11T09:37:04;8.50;;;7.07;;
12848;SDS011;6493;50.928;7.172;2024-01-11T09:42:08;10.70;;;7.60;;
12848;SDS011;6493;50.928;7.172;2024-01-11T09:47:14;8.33;;;6.57;;
12848;SDS011;6493;50.928;7.172;2024-01-11T09:52:20;8.20;;;6.10;;
12848;SDS011;6493;50.928;7.172;2024-01-11T09:57:28;8.57;;;6.37;;
12848;SDS011;6493;50.928;7.172;2024-01-11T10:02:34;9.23;;;7.10;;
12848;SDS011;6493;50.928;7.172;2024-01-11T10:07:38;11.27;;;8.57;;
12848;SDS011;6493;50.928;7.172;2024-01-11T10:12:42;10.37;;;7.47;;
12848;SDS011;6493;50.928;7.172;2024-01-11T10:17:47;11.53;;;7.77;;
12848;SDS011;6493;50.928;7.172;2024-01-11T10:22:51;8.87;;;6.50;;
12848;SDS011;6493;50.928;7.172;2024-01-11T10:27:54;9.77;;;7.20;;
12848;SDS011;6493;50.928;7.172;2024-01-11T10:33:01;10.70;;;7.30;;
12848;SDS011;6493;50.928;7.172;2024-01-11T10:38:05;8.57;;;5.87;;
12848;SDS011;6493;50.928;7.172;2024-01-11T10:43:13;8.93;;;6.40;;
12848;SDS011;6493;50.928;7.172;2024-01-11T10:48:23;9.57;;;5.83;;
12848;SDS011;6493;50.928;7.172;2024-01-11T10:53:31;6.43;;;4.77;;
12848;SDS011;6493;50.928;7.172;2024-01-11T10:58:44;6.17;;;4.50;;
12848;SDS011;6493;50.928;7.172;2024-01-11T11:03:50;7.47;;;4.87;;
12848;SDS011;6493;50.928;7.172;2024-01-11T11:08:57;6.83;;;5.03;;
12848;SDS011;6493;50.928;7.172;2024-01-11T11:14:02;8.37;;;4.63;;
12848;SDS011;6493;50.928;7.172;2024-01-11T11:19:09;6.00;;;4.83;;
12848;SDS011;6493;50.928;7.172;2024-01-11T11:24:14;7.37;;;5.27;;
12848;SDS011;6493;50.928;7.172;2024-01-11T11:29:19;8.97;;;5.20;;
12848;SDS011;6493;50.928;7.172;2024-01-11T11:39:47;6.93;;;4.70;;
12848;SDS011;6493;50.928;7.172;2024-01-11T11:44:51;7.73;;;5.17;;
12848;SDS011;6493;50.928;7.172;2024-01-11T11:50:06;9.33;;;5.43;;
12848;SDS011;6493;50.928;7.172;2024-01-11T11:55:11;6.17;;;4.93;;
12848;SDS011;6493;50.928;7.172;2024-01-11T12:00:16;6.23;;;4.37;;
12848;SDS011;6493;50.928;7.172;2024-01-11T12:05:21;5.57;;;4.30;;
12848;SDS011;6493;50.928;7.172;2024-01-11T12:10:25;6.83;;;4.73;;
12848;SDS011;6493;50.928;7.172;2024-01-11T12:15:28;6.47;;;4.83;;
12848;SDS011;6493;50.928;7.172;2024-01-11T12:20:33;6.57;;;5.00;;
12848;SDS011;6493;50.928;7.172;2024-01-11T12:25:54;6.80;;;5.17;;
12848;SDS011;6493;50.928;7.172;2024-01-11T12:31:05;6.93;;;4.60;;
12848;SDS011;6493;50.928;7.172;2024-01-11T12:36:10;7.00;;;4.70;;
12848;SDS011;6493;50.928;7.172;2024-01-11T12:41:14;6.60;;;4.43;;
12848;SDS011;6493;50.928;7.172;2024-01-11T12:46:27;6.13;;;4.60;;
12848;SDS011;6493;50.928;7.172;2024-01-11T12:51:36;8.10;;;5.60;;
12848;SDS011;6493;50.928;7.172;2024-01-11T12:56:53;5.83;;;4.77;;
12848;SDS011;6493;50.928;7.172;2024-01-11T13:02:05;7.77;;;4.80;;
12848;SDS011;6493;50.928;7.172;2024-01-11T13:07:11;6.33;;;4.37;;
12848;SDS011;6493;50.928;7.172;2024-01-11T13:12:18;6.43;;;4.40;;
12848;SDS011;6493;50.928;7.172;2024-01-11T13:17:26;5.73;;;4.47;;
12848;SDS011;6493;50.928;7.172;2024-01-11T13:23:00;6.30;;;4.17;;
12848;SDS011;6493;50.928;7.172;2024-01-11T13:28:21;6.90;;;4.93;;
12848;SDS011;6493;50.928;7.172;2024-01-11T13:33:34;6.43;;;4.40;;
12848;SDS011;6493;50.928;7.172;2024-01-11T13:38:44;7.97;;;4.67;;
12848;SDS011;6493;50.928;7.172;2024-01-11T13:43:53;6.70;;;4.90;;
12848;SDS011;6493;50.928;7.172;2024-01-11T13:48:57;7.97;;;5.53;;
12848;SDS011;6493;50.928;7.172;2024-01-11T13:54:04;6.97;;;4.87;;
12848;SDS011;6493;50.928;7.172;2024-01-11T13:59:08;6.40;;;4.67;;
12848;SDS011;6493;50.928;7.172;2024-01-11T14:04:14;7.40;;;4.90;;
12848;SDS011;6493;50.928;7.172;2024-01-11T14:09:36;7.00;;;4.87;;
12848;SDS011;6493;50.928;7.172;2024-01-11T14:15:10;6.37;;;4.67;;
12848;SDS011;6493;50.928;7.172;2024-01-11T14:20:15;6.87;;;4.67;;
12848;SDS011;6493;50.928;7.172;2024-01-11T14:25:22;6.83;;;4.93;;
12848;SDS011;6493;50.928;7.172;2024-01-11T14:30:28;10.57;;;6.37;;
12848;SDS011;6493;50.928;7.172;2024-01-11T14:35:32;6.37;;;4.77;;
12848;SDS011;6493;50.928;7.172;2024-01-11T14:40:40;7.20;;;4.63;;
12848;SDS011;6493;50.928;7.172;2024-01-11T14:45:50;6.40;;;4.47;;
12848;SDS011;6493;50.928;7.172;2024-01-11T14:50:56;6.30;;;4.17;;
12848;SDS011;6493;50.928;7.172;2024-01-11T14:56:01;5.53;;;3.80;;
12848;SDS011;6493;50.928;7.172;2024-01-11T15:01:05;5.43;;;3.67;;
12848;SDS011;6493;50.928;7.172;2024-01-11T15:06:08;5.53;;;4.33;;
12848;SDS011;6493;50.928;7.172;2024-01-11T15:11:13;6.40;;;4.37;;
12848;SDS011;6493;50.928;7.172;2024-01-11T15:16:17;6.13;;;4.70;;
12848;SDS011;6493;50.928;7.172;2024-01-11T15:21:21;6.37;;;4.03;;
12848;SDS011;6493;50.928;7.172;2024-01-11T15:26:26;5.00;;;3.60;;
12848;SDS011;6493;50.928;7.172;2024-01-11T15:31:30;4.63;;;3.60;;
12848;SDS011;6493;50.928;7.172;2024-01-11T15:36:34;4.87;;;3.67;;
12848;SDS011;6493;50.928;7.172;2024-01-11T15:41:39;5.40;;;3.60;;
12848;SDS011;6493;50.928;7.172;2024-01-11T15:46:44;6.27;;;4.13;;
12848;SDS011;6493;50.928;7.172;2024-01-11T15:51:49;6.57;;;4.20;;
12848;SDS011;6493;50.928;7.172;2024-01-11T15:56:54;7.70;;;4.60;;
12848;SDS011;6493;50.928;7.172;2024-01-11T16:01:59;8.20;;;4.63;;
12848;SDS011;6493;50.928;7.172;2024-01-11T16:07:08;6.13;;;4.27;;
12848;SDS011;6493;50.928;7.172;2024-01-11T16:12:13;6.43;;;4.30;;
12848;SDS011;6493;50.928;7.172;2024-01-11T16:17:17;6.53;;;3.97;;
12848;SDS011;6493;50.928;7.172;2024-01-11T16:22:20;6.37;;;3.83;;
12848;SDS011;6493;50.928;7.172;2024-01-11T16:27:25;6.27;;;3.93;;
12848;SDS011;6493;50.928;7.172;2024-01-11T16:32:29;6.13;;;4.23;;
12848;SDS011;6493;50.928;7.172;2024-01-11T16:37:34;6.40;;;3.63;;
12848;SDS011;6493;50.928;7.172;2024-01-11T16:42:40;5.53;;;3.73;;
12848;SDS011;6493;50.928;7.172;2024-01-11T16:47:43;8.17;;;4.20;;
12848;SDS011;6493;50.928;7.172;2024-01-11T16:52:47;6.53;;;4.00;;
12848;SDS011;6493;50.928;7.172;2024-01-11T16:57:52;5.30;;;3.53;;
12848;SDS011;6493;50.928;7.172;2024-01-11T17:02:56;6.67;;;3.90;;
12848;SDS011;6493;50.928;7.172;2024-01-11T17:08:00;6.03;;;3.40;;
12848;SDS011;6493;50.928;7.172;2024-01-11T17:13:07;7.37;;;3.47;;
12848;SDS011;6493;50.928;7.172;2024-01-11T17:18:36;5.30;;;3.20;;
12848;SDS011;6493;50.928;7.172;2024-01-11T17:23:44;5.13;;;3.00;;
12848;SDS011;6493;50.928;7.172;2024-01-11T17:29:12;5.77;;;3.07;;
12848;SDS011;6493;50.928;7.172;2024-01-11T17:34:20;6.60;;;3.30;;
12848;SDS011;6493;50.928;7.172;2024-01-11T17:39:24;3.80;;;2.80;;
12848;SDS011;6493;50.928;7.172;2024-01-11T17:44:30;5.83;;;2.93;;
12848;SDS011;6493;50.928;7.172;2024-01-11T17:49:34;5.27;;;3.10;;
12848;SDS011;6493;50.928;7.172;2024-01-11T17:54:40;5.00;;;3.00;;
12848;SDS011;6493;50.928;7.172;2024-01-11T17:59:44;5.33;;;3.60;;
12848;SDS011;6493;50.928;7.172;2024-01-11T18:04:48;6.50;;;3.50;;
12848;SDS011;6493;50.928;7.172;2024-01-11T18:09:52;6.67;;;3.67;;
12848;SDS011;6493;50.928;7.172;2024-01-11T18:14:57;5.30;;;3.30;;
12848;SDS011;6493;50.928;7.172;2024-01-11T18:20:01;5.13;;;3.30;;
12848;SDS011;6493;50.928;7.172;2024-01-11T18:25:07;5.70;;;3.20;;
12848;SDS011;6493;50.928;7.172;2024-01-11T18:30:13;4.77;;;3.03;;
12848;SDS011;6493;50.928;7.172;2024-01-11T18:35:17;7.00;;;3.63;;
12848;SDS011;6493;50.928;7.172;2024-01-11T18:40:20;4.73;;;3.17;;
12848;SDS011;6493;50.928;7.172;2024-01-11T18:45:28;6.70;;;3.50;;
12848;SDS011;6493;50.928;7.172;2024-01-11T18:50:31;7.23;;;3.80;;
12848;SDS011;6493;50.928;7.172;2024-01-11T18:55:35;8.03;;;4.00;;
12848;SDS011;6493;50.928;7.172;2024-01-11T19:00:40;5.23;;;3.13;;
12848;SDS011;6493;50.928;7.172;2024-01-11T19:05:43;7.23;;;3.80;;
12848;SDS011;6493;50.928;7.172;2024-01-11T19:10:47;7.30;;;4.03;;
12848;SDS011;6493;50.928;7.172;2024-01-11T19:15:52;6.53;;;3.80;;
12848;SDS011;6493;50.928;7.172;2024-01-11T19:20:56;4.20;;;3.07;;
12848;SDS011;6493;50.928;7.172;2024-01-11T19:26:00;7.60;;;3.57;;
12848;SDS011;6493;50.928;7.172;2024-01-11T19:31:05;5.83;;;3.30;;
12848;SDS011;6493;50.928;7.172;2024-01-11T19:36:09;4.30;;;2.30;;
12848;SDS011;6493;50.928;7.172;2024-01-11T19:41:19;4.10;;;2.47;;
12848;SDS011;6493;50.928;7.172;2024-01-11T19:46:25;5.43;;;2.70;;
12848;SDS011;6493;50.928;7.172;2024-01-11T19:51:29;3.30;;;2.23;;
12848;SDS011;6493;50.928;7.172;2024-01-11T19:56:33;4.10;;;2.40;;
12848;SDS011;6493;50.928;7.172;2024-01-11T20:01:39;4.23;;;2.57;;
12848;SDS011;6493;50.928;7.172;2024-01-11T20:06:44;5.83;;;3.33;;
12848;SDS011;6493;50.928;7.172;2024-01-11T20:11:48;5.23;;;3.83;;
12848;SDS011;6493;50.928;7.172;2024-01-11T20:16:53;3.67;;;2.53;;
12848;SDS011;6493;50.928;7.172;2024-01-11T20:21:56;4.60;;;2.67;;
12848;SDS011;6493;50.928;7.172;2024-01-11T20:27:00;4.17;;;2.70;;
12848;SDS011;6493;50.928;7.172;2024-01-11T20:32:07;4.80;;;2.90;;
12848;SDS011;6493;50.928;7.172;2024-01-11T20:37:11;4.13;;;2.50;;
12848;SDS011;6493;50.928;7.172;2024-01-11T20:42:15;4.23;;;2.47;;
12848;SDS011;6493;50.928;7.172;2024-01-11T20:47:20;2.67;;;2.03;;
12848;SDS011;6493;50.928;7.172;2024-01-11T20:52:25;4.37;;;2.40;;
12848;SDS011;6493;50.928;7.172;2024-01-11T20:57:29;3.97;;;2.47;;
12848;SDS011;6493;50.928;7.172;2024-01-11T21:02:34;3.10;;;2.10;;
12848;SDS011;6493;50.928;7.172;2024-01-11T21:07:38;2.93;;;1.90;;
12848;SDS011;6493;50.928;7.172;2024-01-11T21:12:42;2.80;;;1.80;;
12848;SDS011;6493;50.928;7.172;2024-01-11T21:17:47;2.80;;;1.83;;
12848;SDS011;6493;50.928;7.172;2024-01-11T21:22:51;2.40;;;1.80;;
12848;SDS011;6493;50.928;7.172;2024-01-11T21:27:54;2.60;;;1.77;;
12848;SDS011;6493;50.928;7.172;2024-01-11T21:32:59;4.10;;;2.07;;
12848;SDS011;6493;50.928;7.172;2024-01-11T21:38:03;3.37;;;2.10;;
12848;SDS011;6493;50.928;7.172;2024-01-11T21:43:06;3.30;;;2.20;;
12848;SDS011;6493;50.928;7.172;2024-01-11T21:48:12;4.50;;;2.97;;
12848;SDS011;6493;50.928;7.172;2024-01-11T21:53:16;4.50;;;3.07;;
12848;SDS011;6493;50.928;7.172;2024-01-11T21:58:19;3.73;;;2.47;;
12848;SDS011;6493;50.928;7.172;2024-01-11T22:03:26;3.83;;;2.33;;
12848;SDS011;6493;50.928;7.172;2024-01-11T22:08:30;4.30;;;2.90;;
12848;SDS011;6493;50.928;7.172;2024-01-11T22:13:34;4.43;;;2.57;;
12848;SDS011;6493;50.928;7.172;2024-01-11T22:18:41;4.13;;;2.60;;
12848;SDS011;6493;50.928;7.172;2024-01-11T22:23:44;5.07;;;3.13;;
12848;SDS011;6493;50.928;7.172;2024-01-11T22:28:48;4.00;;;2.80;;
12848;SDS011;6493;50.928;7.172;2024-01-11T22:33:54;5.00;;;2.97;;
12848;SDS011;6493;50.928;7.172;2024-01-11T22:38:57;4.67;;;2.80;;
12848;SDS011;6493;50.928;7.172;2024-01-11T22:44:01;4.70;;;3.03;;
12848;SDS011;6493;50.928;7.172;2024-01-11T22:49:06;4.70;;;2.80;;
12848;SDS011;6493;50.928;7.172;2024-01-11T22:54:10;3.37;;;2.40;;
12848;SDS011;6493;50.928;7.172;2024-01-11T22:59:13;4.53;;;2.57;;
12848;SDS011;6493;50.928;7.172;2024-01-11T23:04:19;4.30;;;2.57;;
12848;SDS011;6493;50.928;7.172;2024-01-11T23:09:22;3.97;;;2.40;;
12848;SDS011;6493;50.928;7.172;2024-01-11T23:14:26;5.17;;;2.70;;
12848;SDS011;6493;50.928;7.172;2024-01-11T23:19:31;5.37;;;2.80;;
12848;SDS011;6493;50.928;7.172;2024-01-11T23:24:35;3.63;;;2.70;;
12848;SDS011;6493;50.928;7.172;2024-01-11T23:29:39;3.87;;;2.73;;
12848;SDS011;6493;50.928;7.172;2024-01-11T23:34:44;3.37;;;2.57;;
12848;SDS011;6493;50.928;7.172;2024-01-11T23:39:47;3.37;;;2.60;;
12848;SDS011;6493;50.928;7.172;2024-01-11T23:44:51;3.30;;;2.53;;
12848;SDS011;6493;50.928;7.172;2024-01-11T23:49:56;4.77;;;2.80;;
12848;SDS011;6493;50.928;7.172;2024-01-11T23:55:00;4.07;;;2.53;;
